createdAt,value
2019-05-15T00:00:35.650Z,6.77
2019-05-15T00:01:40.700Z,6.77
2019-05-15T00:02:38.679Z,6.77
2019-05-15T00:03:38.839Z,6.74
2019-05-15T00:04:35.622Z,6.69
2019-05-15T00:05:35.598Z,6.64
2019-05-15T00:06:35.590Z,6.70
2019-05-15T00:07:35.574Z,6.72
2019-05-15T00:08:35.590Z,6.64
2019-05-15T00:09:37.897Z,6.62
2019-05-15T00:10:38.967Z,6.66
2019-05-15T00:11:35.534Z,6.64
2019-05-15T00:12:35.530Z,6.49
2019-05-15T00:13:35.506Z,6.45
2019-05-15T00:14:35.495Z,6.49
2019-05-15T00:15:35.502Z,6.46
2019-05-15T00:16:35.494Z,6.57
2019-05-15T00:17:35.462Z,6.56
2019-05-15T00:18:35.450Z,6.51
2019-05-15T00:19:35.454Z,6.51
2019-05-15T00:20:35.454Z,6.56
2019-05-15T00:21:35.446Z,6.48
2019-05-15T00:22:35.406Z,6.49
2019-05-15T00:23:35.410Z,6.36
2019-05-15T00:24:35.382Z,6.41
2019-05-15T00:25:35.388Z,6.33
2019-05-15T00:26:35.370Z,6.44
2019-05-15T00:27:35.366Z,6.41
2019-05-15T00:28:35.338Z,6.30
2019-05-15T00:29:35.354Z,6.26
2019-05-15T00:30:35.317Z,6.30
2019-05-15T00:31:35.306Z,6.28
2019-05-15T00:32:35.294Z,6.16
2019-05-15T00:33:35.321Z,6.17
2019-05-15T00:34:35.269Z,6.16
2019-05-15T00:35:35.262Z,6.09
2019-05-15T00:36:35.254Z,6.16
2019-05-15T00:37:35.234Z,6.14
2019-05-15T00:38:35.213Z,6.11
2019-05-15T00:39:35.221Z,6.05
2019-05-15T00:40:35.197Z,6.07
2019-05-15T00:41:48.317Z,6.14
2019-05-15T00:42:38.437Z,6.17
2019-05-15T00:43:35.161Z,6.14
2019-05-15T00:44:35.165Z,6.11
2019-05-15T00:45:35.148Z,6.14
2019-05-15T00:46:35.157Z,6.14
2019-05-15T00:47:35.117Z,6.12
2019-05-15T00:48:35.123Z,6.09
2019-05-15T00:49:35.092Z,6.05
2019-05-15T00:50:35.097Z,6.01
2019-05-15T00:51:35.089Z,6.02
2019-05-15T00:52:35.057Z,6.01
2019-05-15T00:53:35.049Z,5.94
2019-05-15T00:54:35.041Z,6.01
2019-05-15T00:55:35.021Z,5.94
2019-05-15T00:56:35.057Z,5.94
2019-05-15T00:57:35.010Z,5.90
2019-05-15T00:58:34.993Z,5.93
2019-05-15T00:59:35.002Z,5.89
2019-05-15T01:00:34.969Z,5.93
2019-05-15T01:01:34.957Z,5.93
2019-05-15T01:02:34.964Z,5.87
2019-05-15T01:03:34.942Z,5.83
2019-05-15T01:04:34.932Z,5.83
2019-05-15T01:05:34.929Z,5.79
2019-05-15T01:06:34.928Z,5.84
2019-05-15T01:07:34.905Z,5.80
2019-05-15T01:08:34.890Z,5.83
2019-05-15T01:09:34.879Z,5.76
2019-05-15T01:10:34.870Z,5.73
2019-05-15T01:11:34.869Z,5.75
2019-05-15T01:12:34.837Z,5.68
2019-05-15T01:13:34.841Z,5.62
2019-05-15T01:14:34.812Z,5.68
2019-05-15T01:15:34.808Z,5.66
2019-05-15T01:16:34.788Z,5.64
2019-05-15T01:17:34.801Z,5.65
2019-05-15T01:18:34.781Z,5.65
2019-05-15T01:19:34.760Z,5.59
2019-05-15T01:20:34.747Z,5.54
2019-05-15T01:21:34.737Z,5.64
2019-05-15T01:22:34.740Z,5.62
2019-05-15T01:23:34.738Z,5.54
2019-05-15T01:24:34.701Z,5.59
2019-05-15T01:25:34.697Z,5.51
2019-05-15T01:26:34.680Z,5.66
2019-05-15T01:27:34.666Z,5.53
2019-05-15T01:28:34.721Z,5.46
2019-05-15T01:29:41.868Z,5.57
2019-05-15T01:30:35.649Z,5.48
2019-05-15T01:31:34.638Z,5.47
2019-05-15T01:32:34.665Z,5.50
2019-05-15T01:33:34.601Z,5.57
2019-05-15T01:34:34.608Z,5.50
2019-05-15T01:35:34.581Z,5.46
2019-05-15T01:36:34.570Z,5.47
2019-05-15T01:37:34.560Z,5.50
2019-05-15T01:38:34.548Z,5.48
2019-05-15T01:39:34.536Z,5.54
2019-05-15T01:40:34.536Z,5.51
2019-05-15T01:41:34.508Z,5.46
2019-05-15T01:42:34.501Z,5.46
2019-05-15T01:43:34.496Z,5.51
2019-05-15T01:44:34.488Z,5.56
2019-05-15T01:45:34.469Z,5.47
2019-05-15T01:46:34.477Z,5.53
2019-05-15T01:47:34.448Z,5.51
2019-05-15T01:48:34.433Z,5.46
2019-05-15T01:49:34.428Z,5.48
2019-05-15T01:50:34.437Z,5.48
2019-05-15T01:51:34.417Z,5.56
2019-05-15T01:52:34.388Z,5.50
2019-05-15T01:53:34.405Z,5.41
2019-05-15T01:54:34.369Z,5.44
2019-05-15T01:55:34.356Z,5.38
2019-05-15T01:56:34.349Z,5.50
2019-05-15T01:57:34.333Z,5.41
2019-05-15T01:58:34.341Z,5.43
2019-05-15T01:59:34.345Z,5.38
2019-05-15T02:00:34.329Z,5.39
2019-05-15T02:01:34.292Z,5.35
2019-05-15T02:02:34.277Z,5.36
2019-05-15T02:03:34.289Z,5.25
2019-05-15T02:04:34.263Z,5.26
2019-05-15T02:05:34.254Z,5.23
2019-05-15T02:06:34.260Z,5.26
2019-05-15T02:07:34.224Z,5.17
2019-05-15T02:08:34.241Z,5.21
2019-05-15T02:09:34.204Z,5.17
2019-05-15T02:10:34.193Z,5.21
2019-05-15T02:11:34.185Z,5.17
2019-05-15T02:12:34.202Z,5.11
2019-05-15T02:13:34.160Z,5.02
2019-05-15T02:14:34.153Z,4.99
2019-05-15T02:15:34.172Z,5.04
2019-05-15T02:16:34.128Z,5.05
2019-05-15T02:17:34.116Z,5.04
2019-05-15T02:18:34.124Z,4.99
2019-05-15T02:19:34.097Z,4.99
2019-05-15T02:20:34.081Z,5.02
2019-05-15T02:21:34.072Z,4.89
2019-05-15T02:22:34.057Z,4.90
2019-05-15T02:23:34.053Z,4.90
2019-05-15T02:24:34.059Z,4.99
2019-05-15T02:25:34.028Z,4.89
2019-05-15T02:26:34.013Z,4.96
2019-05-15T02:27:34.000Z,4.92
2019-05-15T02:28:33.988Z,4.93
2019-05-15T02:29:33.977Z,4.86
2019-05-15T02:30:34.481Z,4.92
2019-05-15T02:31:33.961Z,4.92
2019-05-15T02:32:33.946Z,4.90
2019-05-15T02:33:33.938Z,4.90
2019-05-15T02:34:33.953Z,4.77
2019-05-15T02:35:33.912Z,4.77
2019-05-15T02:36:33.917Z,4.89
2019-05-15T02:37:33.897Z,4.77
2019-05-15T02:38:33.878Z,4.75
2019-05-15T02:39:33.880Z,4.73
2019-05-15T02:40:33.860Z,4.75
2019-05-15T02:41:33.881Z,4.77
2019-05-15T02:42:33.834Z,4.82
2019-05-15T02:43:33.825Z,4.80
2019-05-15T02:44:33.842Z,4.73
2019-05-15T02:45:36.790Z,4.77
2019-05-15T02:46:34.813Z,4.77
2019-05-15T02:47:33.777Z,4.71
2019-05-15T02:48:33.776Z,4.74
2019-05-15T02:49:33.757Z,4.73
2019-05-15T02:50:33.753Z,4.70
2019-05-15T02:51:33.748Z,4.74
2019-05-15T02:52:33.734Z,4.68
2019-05-15T02:53:33.730Z,4.71
2019-05-15T02:54:33.701Z,4.71
2019-05-15T02:55:33.688Z,4.68
2019-05-15T02:56:33.684Z,4.66
2019-05-15T02:57:33.674Z,4.62
2019-05-15T02:58:33.661Z,4.62
2019-05-15T02:59:33.664Z,4.58
2019-05-15T03:00:44.074Z,4.66
2019-05-15T03:01:34.620Z,4.50
2019-05-15T03:02:33.617Z,4.50
2019-05-15T03:03:33.605Z,4.67
2019-05-15T03:04:33.592Z,4.56
2019-05-15T03:05:33.606Z,4.60
2019-05-15T03:06:33.579Z,4.52
2019-05-15T03:07:33.557Z,4.56
2019-05-15T03:08:33.561Z,4.53
2019-05-15T03:09:33.536Z,4.45
2019-05-15T03:10:33.538Z,4.52
2019-05-15T03:11:33.532Z,4.52
2019-05-15T03:12:33.505Z,4.56
2019-05-15T03:13:33.494Z,4.52
2019-05-15T03:14:33.485Z,4.55
2019-05-15T03:15:33.485Z,4.56
2019-05-15T03:16:33.459Z,4.55
2019-05-15T03:17:33.447Z,4.55
2019-05-15T03:18:33.459Z,4.53
2019-05-15T03:19:33.436Z,4.48
2019-05-15T03:20:33.453Z,4.50
2019-05-15T03:21:33.406Z,4.44
2019-05-15T03:22:33.396Z,4.44
2019-05-15T03:23:33.398Z,4.41
2019-05-15T03:24:33.385Z,4.42
2019-05-15T03:25:33.369Z,4.45
2019-05-15T03:26:33.369Z,4.48
2019-05-15T03:27:34.861Z,4.45
2019-05-15T03:28:33.329Z,4.48
2019-05-15T03:29:33.317Z,4.40
2019-05-15T03:31:02.635Z,4.44
2019-05-15T03:31:50.346Z,4.31
2019-05-15T03:32:43.656Z,4.44
2019-05-15T03:33:36.848Z,4.31
2019-05-15T03:34:38.132Z,4.34
2019-05-15T03:35:34.260Z,4.31
2019-05-15T03:36:33.238Z,4.35
2019-05-15T03:37:34.338Z,4.31
2019-05-15T03:38:33.221Z,4.26
2019-05-15T03:39:33.212Z,4.30
2019-05-15T03:40:33.190Z,4.35
2019-05-15T03:41:33.181Z,4.31
2019-05-15T03:42:33.183Z,4.31
2019-05-15T03:43:33.191Z,4.32
2019-05-15T03:44:33.161Z,4.28
2019-05-15T03:45:33.142Z,4.31
2019-05-15T03:46:33.129Z,4.26
2019-05-15T03:47:33.117Z,4.26
2019-05-15T03:48:33.111Z,4.17
2019-05-15T03:49:33.117Z,4.34
2019-05-15T03:50:33.088Z,4.28
2019-05-15T03:51:33.073Z,4.23
2019-05-15T03:52:33.073Z,4.31
2019-05-15T03:53:33.049Z,4.23
2019-05-15T03:54:33.045Z,4.20
2019-05-15T03:55:33.045Z,4.24
2019-05-15T03:56:33.033Z,4.28
2019-05-15T03:57:33.001Z,4.16
2019-05-15T03:58:32.996Z,4.14
2019-05-15T03:59:32.986Z,4.19
2019-05-15T04:00:33.006Z,4.14
2019-05-15T04:01:38.805Z,4.22
2019-05-15T04:02:33.952Z,4.26
2019-05-15T04:03:32.941Z,4.23
2019-05-15T04:04:32.929Z,4.28
2019-05-15T04:05:32.932Z,4.13
2019-05-15T04:06:32.904Z,4.14
2019-05-15T04:07:32.899Z,4.22
2019-05-15T04:08:32.885Z,4.10
2019-05-15T04:09:32.890Z,4.14
2019-05-15T04:10:32.877Z,4.16
2019-05-15T04:11:32.861Z,4.20
2019-05-15T04:12:32.836Z,4.14
2019-05-15T04:13:32.841Z,4.17
2019-05-15T04:14:32.814Z,4.26
2019-05-15T04:15:32.802Z,4.28
2019-05-15T04:16:32.805Z,4.19
2019-05-15T04:17:32.780Z,4.22
2019-05-15T04:18:32.801Z,4.22
2019-05-15T04:19:32.805Z,4.12
2019-05-15T04:20:32.758Z,4.24
2019-05-15T04:21:32.781Z,4.23
2019-05-15T04:22:32.729Z,4.16
2019-05-15T04:23:32.720Z,4.22
2019-05-15T04:24:32.726Z,4.14
2019-05-15T04:25:32.703Z,4.14
2019-05-15T04:26:32.692Z,4.19
2019-05-15T04:27:32.706Z,4.23
2019-05-15T04:28:32.665Z,4.22
2019-05-15T04:29:32.653Z,4.23
2019-05-15T04:30:32.637Z,4.30
2019-05-15T04:31:50.600Z,4.17
2019-05-15T04:32:33.633Z,4.22
2019-05-15T04:33:32.612Z,4.26
2019-05-15T04:34:32.636Z,4.24
2019-05-15T04:35:32.588Z,4.24
2019-05-15T04:36:32.596Z,4.30
2019-05-15T04:37:32.562Z,4.35
2019-05-15T04:38:32.565Z,4.28
2019-05-15T04:39:32.534Z,4.32
2019-05-15T04:40:32.538Z,4.30
2019-05-15T04:41:32.516Z,4.32
2019-05-15T04:42:32.506Z,4.37
2019-05-15T04:43:41.323Z,4.40
2019-05-15T04:44:33.484Z,4.42
2019-05-15T04:45:35.221Z,4.42
2019-05-15T04:46:32.463Z,4.45
2019-05-15T04:47:32.453Z,4.45
2019-05-15T04:48:32.449Z,4.42
2019-05-15T04:49:32.453Z,4.41
2019-05-15T04:50:32.414Z,4.44
2019-05-15T04:51:32.401Z,4.40
2019-05-15T04:52:32.389Z,4.58
2019-05-15T04:53:33.095Z,4.56
2019-05-15T04:54:32.409Z,4.50
2019-05-15T04:55:32.369Z,4.56
2019-05-15T04:56:32.366Z,4.63
2019-05-15T04:57:33.998Z,4.52
2019-05-15T04:58:32.357Z,4.59
2019-05-15T04:59:32.317Z,4.66
2019-05-15T05:00:32.328Z,4.63
2019-05-15T05:01:32.304Z,4.70
2019-05-15T05:02:32.607Z,4.62
2019-05-15T05:03:34.646Z,4.63
2019-05-15T05:04:32.302Z,4.70
2019-05-15T05:05:32.246Z,4.68
2019-05-15T05:06:32.260Z,4.68
2019-05-15T05:07:32.245Z,4.77
2019-05-15T05:08:32.231Z,4.73
2019-05-15T05:09:32.223Z,4.74
2019-05-15T05:10:32.193Z,4.70
2019-05-15T05:11:32.188Z,4.84
2019-05-15T05:12:32.192Z,4.74
2019-05-15T05:13:32.173Z,4.93
2019-05-15T05:14:32.152Z,4.89
2019-05-15T05:15:32.140Z,4.96
2019-05-15T05:16:32.151Z,4.99
2019-05-15T05:17:32.128Z,4.89
2019-05-15T05:18:32.118Z,4.92
2019-05-15T05:19:32.120Z,5.04
2019-05-15T05:20:32.084Z,5.05
2019-05-15T05:21:32.072Z,5.12
2019-05-15T05:22:32.084Z,4.99
2019-05-15T05:23:32.068Z,4.96
2019-05-15T05:24:32.044Z,5.00
2019-05-15T05:25:32.029Z,5.08
2019-05-15T05:26:32.048Z,5.14
2019-05-15T05:27:32.001Z,5.14
2019-05-15T05:28:31.997Z,5.08
2019-05-15T05:29:32.000Z,5.18
2019-05-15T05:30:32.008Z,5.17
2019-05-15T05:31:31.963Z,5.25
2019-05-15T05:32:35.004Z,5.23
2019-05-15T05:33:31.948Z,5.23
2019-05-15T05:34:31.928Z,5.23
2019-05-15T05:35:31.928Z,5.29
2019-05-15T05:36:31.924Z,5.33
2019-05-15T05:37:31.895Z,5.29
2019-05-15T05:38:31.901Z,5.35
2019-05-15T05:39:31.875Z,5.32
2019-05-15T05:40:31.860Z,5.46
2019-05-15T05:41:31.848Z,5.44
2019-05-15T05:42:31.840Z,5.54
2019-05-15T05:43:31.844Z,5.54
2019-05-15T05:44:31.823Z,5.64
2019-05-15T05:45:31.824Z,5.69
2019-05-15T05:46:31.800Z,5.69
2019-05-15T05:47:31.792Z,5.65
2019-05-15T05:48:31.776Z,5.71
2019-05-15T05:49:31.776Z,5.66
2019-05-15T05:50:31.748Z,5.73
2019-05-15T05:51:31.744Z,5.84
2019-05-15T05:52:31.727Z,5.82
2019-05-15T05:53:31.741Z,5.91
2019-05-15T05:54:31.704Z,5.94
2019-05-15T05:55:31.701Z,5.93
2019-05-15T05:56:31.704Z,5.94
2019-05-15T05:57:31.704Z,6.01
2019-05-15T05:58:31.660Z,5.98
2019-05-15T05:59:31.648Z,6.14
2019-05-15T06:00:31.658Z,6.09
2019-05-15T06:01:31.629Z,6.17
2019-05-15T06:02:43.670Z,6.26
2019-05-15T06:03:32.608Z,6.19
2019-05-15T06:04:31.597Z,6.27
2019-05-15T06:05:31.635Z,6.26
2019-05-15T06:06:31.590Z,6.31
2019-05-15T06:07:31.562Z,6.38
2019-05-15T06:08:31.552Z,6.42
2019-05-15T06:09:31.536Z,6.49
2019-05-15T06:10:31.528Z,6.54
2019-05-15T06:11:31.540Z,6.60
2019-05-15T06:12:31.506Z,6.57
2019-05-15T06:13:31.504Z,6.67
2019-05-15T06:14:31.485Z,6.66
2019-05-15T06:15:31.472Z,6.66
2019-05-15T06:16:31.459Z,6.77
2019-05-15T06:17:31.452Z,6.75
2019-05-15T06:18:31.444Z,6.81
2019-05-15T06:19:31.540Z,6.81
2019-05-15T06:20:31.416Z,6.79
2019-05-15T06:21:31.501Z,6.77
2019-05-15T06:22:31.396Z,6.78
2019-05-15T06:23:35.066Z,6.92
2019-05-15T06:24:31.368Z,6.85
2019-05-15T06:25:31.396Z,6.93
2019-05-15T06:26:31.356Z,6.95
2019-05-15T06:27:31.348Z,6.95
2019-05-15T06:28:31.328Z,7.02
2019-05-15T06:29:31.340Z,7.03
2019-05-15T06:30:31.434Z,7.17
2019-05-15T06:31:31.339Z,7.23
2019-05-15T06:32:31.285Z,7.15
2019-05-15T06:33:31.268Z,7.25
2019-05-15T06:34:31.260Z,7.17
2019-05-15T06:35:31.533Z,7.35
2019-05-15T06:36:31.236Z,7.31
2019-05-15T06:37:31.244Z,7.38
2019-05-15T06:38:31.278Z,7.38
2019-05-15T06:39:31.204Z,7.48
2019-05-15T06:40:31.208Z,7.51
2019-05-15T06:41:33.836Z,7.50
2019-05-15T06:42:31.182Z,7.50
2019-05-15T06:43:31.202Z,7.58
2019-05-15T06:44:31.148Z,7.57
2019-05-15T06:45:31.136Z,7.63
2019-05-15T06:46:31.136Z,7.66
2019-05-15T06:47:31.112Z,7.76
2019-05-15T06:48:31.100Z,7.76
2019-05-15T06:49:31.104Z,7.85
2019-05-15T06:50:31.079Z,7.93
2019-05-15T06:51:31.072Z,7.85
2019-05-15T06:52:31.072Z,7.83
2019-05-15T06:53:31.084Z,7.93
2019-05-15T06:54:31.048Z,7.91
2019-05-15T06:55:31.040Z,8.03
2019-05-15T06:56:31.012Z,8.06
2019-05-15T06:57:31.000Z,8.09
2019-05-15T06:58:30.992Z,8.13
2019-05-15T06:59:31.000Z,8.19
2019-05-15T07:00:30.975Z,8.26
2019-05-15T07:01:30.960Z,8.28
2019-05-15T07:02:30.952Z,8.34
2019-05-15T07:03:30.957Z,8.30
2019-05-15T07:04:30.924Z,8.33
2019-05-15T07:05:30.946Z,8.42
2019-05-15T07:06:30.904Z,8.37
2019-05-15T07:07:30.896Z,8.38
2019-05-15T07:08:30.916Z,8.45
2019-05-15T07:09:30.877Z,8.38
2019-05-15T07:10:30.874Z,8.52
2019-05-15T07:11:30.848Z,8.53
2019-05-15T07:12:30.836Z,8.64
2019-05-15T07:13:30.829Z,8.63
2019-05-15T07:14:30.820Z,8.67
2019-05-15T07:15:30.804Z,8.70
2019-05-15T07:16:30.792Z,8.64
2019-05-15T07:17:30.780Z,8.66
2019-05-15T07:18:30.797Z,8.66
2019-05-15T07:19:30.784Z,8.71
2019-05-15T07:20:30.753Z,8.71
2019-05-15T07:21:30.740Z,8.74
2019-05-15T07:22:30.724Z,8.88
2019-05-15T07:23:30.926Z,8.85
2019-05-15T07:24:30.704Z,8.82
2019-05-15T07:25:30.704Z,8.89
2019-05-15T07:26:30.703Z,8.89
2019-05-15T07:27:30.668Z,9.10
2019-05-15T07:28:30.755Z,9.08
2019-05-15T07:29:30.654Z,9.14
2019-05-15T07:30:30.652Z,9.21
2019-05-15T07:31:30.644Z,9.22
2019-05-15T07:32:30.642Z,9.25
2019-05-15T07:33:39.726Z,9.31
2019-05-15T07:34:31.596Z,9.40
2019-05-15T07:35:30.580Z,9.41
2019-05-15T07:36:30.584Z,9.44
2019-05-15T07:37:30.559Z,9.54
2019-05-15T07:38:30.641Z,9.56
2019-05-15T07:39:30.540Z,9.58
2019-05-15T07:40:30.538Z,9.65
2019-05-15T07:41:30.509Z,9.69
2019-05-15T07:42:30.508Z,9.79
2019-05-15T07:43:30.519Z,9.79
2019-05-15T07:44:30.541Z,9.79
2019-05-15T07:45:30.479Z,9.94
2019-05-15T07:46:30.460Z,9.92
2019-05-15T07:47:30.444Z,10.02
2019-05-15T07:48:30.456Z,10.15
2019-05-15T07:49:30.433Z,10.25
2019-05-15T07:50:30.408Z,10.37
2019-05-15T07:51:30.396Z,10.34
2019-05-15T07:52:30.447Z,10.42
2019-05-15T07:53:30.401Z,10.56
2019-05-15T07:54:30.415Z,10.61
2019-05-15T07:55:30.361Z,10.75
2019-05-15T07:56:30.368Z,10.79
2019-05-15T07:57:30.340Z,10.86
2019-05-15T07:58:30.328Z,10.93
2019-05-15T07:59:30.323Z,11.05
2019-05-15T08:00:30.353Z,11.07
2019-05-15T08:01:30.305Z,11.08
2019-05-15T08:02:30.280Z,11.23
2019-05-15T08:03:30.284Z,11.23
2019-05-15T08:04:32.916Z,11.35
2019-05-15T08:05:30.279Z,11.51
2019-05-15T08:06:30.242Z,11.48
2019-05-15T08:07:30.372Z,11.59
2019-05-15T08:08:30.264Z,11.54
2019-05-15T08:09:30.260Z,11.54
2019-05-15T08:10:30.226Z,11.66
2019-05-15T08:11:30.928Z,11.65
2019-05-15T08:12:30.175Z,11.59
2019-05-15T08:13:30.340Z,11.81
2019-05-15T08:14:30.152Z,11.88
2019-05-15T08:15:30.143Z,11.86
2019-05-15T08:16:30.136Z,11.90
2019-05-15T08:17:30.156Z,11.88
2019-05-15T08:18:30.100Z,11.90
2019-05-15T08:19:30.156Z,11.99
2019-05-15T08:20:30.104Z,12.10
2019-05-15T08:21:30.083Z,12.15
2019-05-15T08:22:30.052Z,12.21
2019-05-15T08:23:30.072Z,12.35
2019-05-15T08:24:30.101Z,12.42
2019-05-15T08:25:35.085Z,12.53
2019-05-15T08:26:31.020Z,12.72
2019-05-15T08:27:30.106Z,12.70
2019-05-15T08:28:29.987Z,12.65
2019-05-15T08:29:29.984Z,12.68
2019-05-15T08:30:29.980Z,12.75
2019-05-15T08:31:29.976Z,12.80
2019-05-15T08:32:29.947Z,12.83
2019-05-15T08:33:29.936Z,12.90
2019-05-15T08:34:29.915Z,12.95
2019-05-15T08:35:29.964Z,13.01
2019-05-15T08:36:31.378Z,13.08
2019-05-15T08:37:29.939Z,13.00
2019-05-15T08:38:29.901Z,13.13
2019-05-15T08:39:29.876Z,13.28
2019-05-15T08:40:29.852Z,13.33
2019-05-15T08:41:29.878Z,13.33
2019-05-15T08:42:32.068Z,13.53
2019-05-15T08:43:31.391Z,13.59
2019-05-15T08:44:29.805Z,13.57
2019-05-15T08:45:29.874Z,13.63
2019-05-15T08:46:29.788Z,13.59
2019-05-15T08:47:29.893Z,13.53
2019-05-15T08:48:32.621Z,13.56
2019-05-15T08:49:29.764Z,13.65
2019-05-15T08:50:29.740Z,13.65
2019-05-15T08:51:29.732Z,13.67
2019-05-15T08:52:29.721Z,13.70
2019-05-15T08:53:29.800Z,13.77
2019-05-15T08:54:29.716Z,13.86
2019-05-15T08:55:29.692Z,13.89
2019-05-15T08:56:29.689Z,13.97
2019-05-15T08:57:29.665Z,14.05
2019-05-15T08:58:29.651Z,14.08
2019-05-15T08:59:29.711Z,14.05
2019-05-15T09:00:29.644Z,14.00
2019-05-15T09:01:29.623Z,14.03
2019-05-15T09:02:29.611Z,14.14
2019-05-15T09:03:29.613Z,14.22
2019-05-15T09:04:34.659Z,14.29
2019-05-15T09:05:30.672Z,14.30
2019-05-15T09:06:29.584Z,14.36
2019-05-15T09:07:29.560Z,14.28
2019-05-15T09:08:29.611Z,14.26
2019-05-15T09:09:29.541Z,14.48
2019-05-15T09:10:29.520Z,14.41
2019-05-15T09:11:29.524Z,14.36
2019-05-15T09:12:29.657Z,14.47
2019-05-15T09:13:29.532Z,14.45
2019-05-15T09:14:29.471Z,14.44
2019-05-15T09:15:29.527Z,14.50
2019-05-15T09:16:29.476Z,14.50
2019-05-15T09:17:29.440Z,14.58
2019-05-15T09:18:29.428Z,14.62
2019-05-15T09:19:29.431Z,14.55
2019-05-15T09:20:29.444Z,14.69
2019-05-15T09:21:29.388Z,14.78
2019-05-15T09:22:29.410Z,14.86
2019-05-15T09:23:29.403Z,14.84
2019-05-15T09:24:29.384Z,14.89
2019-05-15T09:25:29.352Z,14.85
2019-05-15T09:26:29.340Z,14.82
2019-05-15T09:27:29.329Z,14.89
2019-05-15T09:28:29.829Z,14.89
2019-05-15T09:29:29.323Z,14.92
2019-05-15T09:30:29.292Z,14.78
2019-05-15T09:31:29.277Z,14.88
2019-05-15T09:32:29.268Z,14.82
2019-05-15T09:33:29.275Z,14.85
2019-05-15T09:34:46.447Z,14.89
2019-05-15T09:35:30.264Z,15.03
2019-05-15T09:36:29.224Z,15.03
2019-05-15T09:37:29.229Z,14.96
2019-05-15T09:38:29.220Z,14.94
2019-05-15T09:39:29.215Z,15.07
2019-05-15T09:40:42.549Z,15.14
2019-05-15T09:41:30.168Z,15.29
2019-05-15T09:42:29.192Z,15.46
2019-05-15T09:43:29.164Z,15.39
2019-05-15T09:44:29.140Z,15.28
2019-05-15T09:45:29.152Z,15.24
2019-05-15T09:46:29.305Z,15.07
2019-05-15T09:47:29.679Z,15.06
2019-05-15T09:48:29.091Z,15.25
2019-05-15T09:49:29.080Z,15.28
2019-05-15T09:50:29.065Z,15.28
2019-05-15T09:51:29.188Z,15.52
2019-05-15T09:52:30.120Z,15.61
2019-05-15T09:53:29.040Z,15.77
2019-05-15T09:54:29.521Z,15.82
2019-05-15T09:55:29.088Z,15.88
2019-05-15T09:56:29.203Z,15.82
2019-05-15T09:57:30.149Z,15.84
2019-05-15T09:58:30.237Z,15.86
2019-05-15T09:59:28.972Z,16.00
2019-05-15T10:00:29.330Z,15.98
2019-05-15T10:01:28.996Z,16.02
2019-05-15T10:02:28.936Z,16.04
2019-05-15T10:03:28.921Z,16.17
2019-05-15T10:04:29.203Z,16.28
2019-05-15T10:05:28.945Z,16.36
2019-05-15T10:06:28.897Z,16.50
2019-05-15T10:07:28.879Z,16.36
2019-05-15T10:08:29.391Z,16.23
2019-05-15T10:09:28.868Z,16.13
2019-05-15T10:10:28.882Z,16.05
2019-05-15T10:11:29.085Z,16.13
2019-05-15T10:12:34.571Z,16.23
2019-05-15T10:13:29.830Z,16.29
2019-05-15T10:14:29.698Z,16.35
2019-05-15T10:15:28.787Z,16.35
2019-05-15T10:16:28.780Z,16.50
2019-05-15T10:17:29.175Z,16.51
2019-05-15T10:18:28.762Z,16.58
2019-05-15T10:19:29.101Z,16.49
2019-05-15T10:20:29.214Z,16.33
2019-05-15T10:21:32.282Z,16.39
2019-05-15T10:22:28.711Z,16.46
2019-05-15T10:23:29.360Z,16.47
2019-05-15T10:24:28.695Z,16.57
2019-05-15T10:25:28.676Z,16.54
2019-05-15T10:26:28.717Z,16.49
2019-05-15T10:27:28.839Z,16.56
2019-05-15T10:28:29.401Z,16.68
2019-05-15T10:29:28.648Z,16.71
2019-05-15T10:30:28.695Z,16.57
2019-05-15T10:31:28.619Z,16.57
2019-05-15T10:32:29.124Z,16.71
2019-05-15T10:33:29.568Z,16.69
2019-05-15T10:34:28.957Z,16.68
2019-05-15T10:35:31.487Z,16.49
2019-05-15T10:36:28.555Z,16.43
2019-05-15T10:37:28.733Z,16.36
2019-05-15T10:38:28.729Z,16.39
2019-05-15T10:39:28.874Z,16.47
2019-05-15T10:40:29.626Z,16.42
2019-05-15T10:41:28.502Z,16.60
2019-05-15T10:42:29.108Z,16.78
2019-05-15T10:43:28.857Z,16.81
2019-05-15T10:44:28.637Z,16.78
2019-05-15T10:45:29.587Z,16.89
2019-05-15T10:46:28.465Z,17.06
2019-05-15T10:47:29.338Z,17.27
2019-05-15T10:48:29.425Z,17.38
2019-05-15T10:49:28.418Z,17.39
2019-05-15T10:50:28.605Z,17.38
2019-05-15T10:51:28.710Z,17.42
2019-05-15T10:52:28.760Z,17.46
2019-05-15T10:53:29.687Z,17.29
2019-05-15T10:54:29.323Z,17.06
2019-05-15T10:55:28.885Z,16.90
2019-05-15T10:56:29.162Z,16.91
2019-05-15T10:57:28.324Z,16.81
2019-05-15T10:58:28.698Z,16.81
2019-05-15T10:59:28.307Z,16.86
2019-05-15T11:00:28.710Z,16.91
2019-05-15T11:01:28.295Z,17.01
2019-05-15T11:02:29.016Z,17.20
2019-05-15T11:03:29.793Z,17.09
2019-05-15T11:04:28.826Z,16.90
2019-05-15T11:05:40.549Z,16.94
2019-05-15T11:06:29.231Z,17.01
2019-05-15T11:07:28.510Z,16.99
2019-05-15T11:08:28.953Z,17.08
2019-05-15T11:09:28.690Z,17.16
2019-05-15T11:10:28.990Z,17.44
2019-05-15T11:11:28.171Z,17.56
2019-05-15T11:12:29.249Z,17.68
2019-05-15T11:13:28.857Z,17.72
2019-05-15T11:14:28.709Z,17.83
2019-05-15T11:15:29.092Z,17.65
2019-05-15T11:16:28.375Z,17.56
2019-05-15T11:17:29.074Z,17.52
2019-05-15T11:18:30.744Z,17.78
2019-05-15T11:19:35.791Z,17.68
2019-05-15T11:20:29.082Z,17.65
2019-05-15T11:21:28.056Z,17.63
2019-05-15T11:22:29.808Z,17.71
2019-05-15T11:23:29.347Z,17.72
2019-05-15T11:24:28.244Z,17.97
2019-05-15T11:25:30.103Z,18.13
2019-05-15T11:26:33.094Z,18.18
2019-05-15T11:27:31.404Z,18.16
2019-05-15T11:28:31.742Z,18.16
2019-05-15T11:29:27.967Z,18.31
2019-05-15T11:30:27.979Z,18.35
2019-05-15T11:31:28.619Z,18.15
2019-05-15T11:32:29.361Z,18.18
2019-05-15T11:33:29.239Z,18.13
2019-05-15T11:34:29.068Z,18.10
2019-05-15T11:35:28.529Z,18.26
2019-05-15T11:36:28.783Z,18.28
2019-05-15T11:37:28.376Z,18.47
2019-05-15T11:38:28.907Z,18.58
2019-05-15T11:39:28.828Z,18.62
2019-05-15T11:40:28.329Z,18.63
2019-05-15T11:41:29.535Z,18.73
2019-05-15T11:42:28.833Z,18.75
2019-05-15T11:43:29.267Z,18.59
2019-05-15T11:44:28.281Z,18.47
2019-05-15T11:45:29.041Z,18.49
2019-05-15T11:46:29.099Z,18.44
2019-05-15T11:47:27.945Z,18.49
2019-05-15T11:48:29.908Z,18.43
2019-05-15T11:49:29.021Z,18.44
2019-05-15T11:50:29.260Z,18.40
2019-05-15T11:51:29.044Z,18.53
2019-05-15T11:52:29.392Z,18.62
2019-05-15T11:53:28.417Z,18.56
2019-05-15T11:54:28.272Z,18.60
2019-05-15T11:55:29.180Z,18.41
2019-05-15T11:56:29.612Z,18.44
2019-05-15T11:57:39.665Z,18.43
2019-05-15T11:58:28.671Z,18.45
2019-05-15T11:59:29.800Z,18.66
2019-05-15T12:00:30.203Z,18.77
2019-05-15T12:01:28.782Z,18.98
2019-05-15T12:02:29.327Z,18.98
2019-05-15T12:03:29.017Z,18.93
2019-05-15T12:04:33.610Z,18.96
2019-05-15T12:05:28.872Z,18.88
2019-05-15T12:06:29.226Z,19.07
2019-05-15T12:07:29.006Z,19.16
2019-05-15T12:08:29.378Z,19.18
2019-05-15T12:09:28.264Z,19.40
2019-05-15T12:10:28.879Z,19.55
2019-05-15T12:11:36.059Z,19.70
2019-05-15T12:12:31.810Z,19.92
2019-05-15T12:13:28.016Z,20.09
2019-05-15T12:14:29.612Z,19.96
2019-05-15T12:15:27.995Z,20.11
2019-05-15T12:16:28.962Z,19.96
2019-05-15T12:17:28.471Z,19.74
2019-05-15T12:18:28.500Z,19.52
2019-05-15T12:19:29.182Z,19.04
2019-05-15T12:20:28.624Z,18.77
2019-05-15T12:21:28.696Z,18.70
2019-05-15T12:22:28.961Z,18.60
2019-05-15T12:23:29.141Z,18.52
2019-05-15T12:25:31.594Z,17.95
2019-05-15T12:26:29.326Z,17.63
2019-05-15T12:27:28.333Z,17.63
2019-05-15T12:28:29.514Z,17.51
2019-05-15T12:29:28.537Z,17.45
2019-05-15T12:30:29.567Z,17.42
2019-05-15T12:31:27.281Z,17.57
2019-05-15T12:32:35.851Z,17.64
2019-05-15T12:33:29.082Z,17.63
2019-05-15T12:34:28.975Z,17.63
2019-05-15T12:35:29.526Z,17.42
2019-05-15T12:36:50.142Z,17.26
2019-05-15T12:37:28.642Z,17.26
2019-05-15T12:39:30.433Z,17.65
2019-05-15T13:00:29.868Z,19.56
2019-05-15T13:01:29.404Z,19.63
2019-05-15T13:02:28.099Z,19.70
2019-05-15T13:03:28.943Z,19.77
2019-05-15T13:04:28.409Z,19.91
2019-05-15T13:05:29.065Z,19.91
2019-05-15T13:06:28.511Z,19.76
2019-05-15T13:07:28.595Z,19.49
2019-05-15T13:08:29.081Z,19.09
2019-05-15T13:09:27.727Z,18.92
2019-05-15T13:10:28.765Z,18.90
2019-05-15T13:11:28.450Z,18.88
2019-05-15T13:12:28.857Z,18.55
2019-05-15T13:13:28.374Z,18.40
2019-05-15T13:14:28.335Z,18.19
2019-05-15T13:15:28.197Z,17.94
2019-05-15T13:16:28.174Z,17.89
2019-05-15T13:17:28.939Z,17.95
2019-05-15T13:18:28.632Z,18.20
2019-05-15T13:19:28.440Z,18.34
2019-05-15T13:20:28.799Z,18.68
2019-05-15T13:21:26.751Z,18.95
2019-05-15T13:22:28.140Z,19.21
2019-05-15T13:23:28.486Z,19.54
2019-05-15T13:24:28.397Z,19.84
2019-05-15T13:25:28.074Z,20.14
2019-05-15T13:26:27.199Z,20.25
2019-05-15T13:27:26.660Z,20.22
2019-05-15T13:28:29.014Z,20.31
2019-05-15T13:29:28.952Z,20.47